sensor_id;sensor_type;location;lat;lon;timestamp;P1;durP1;ratioP1;P2;durP2;ratioP2
57718;SDS011;43561;50.090;18.522;2024-01-30T00:09:07;61.78;;;29.52;;
57718;SDS011;43561;50.090;18.522;2024-01-30T00:19:21;48.92;;;25.80;;
57718;SDS011;43561;50.090;18.522;2024-01-30T00:40:00;41.67;;;21.90;;
57718;SDS011;43561;50.090;18.522;2024-01-30T01:01:06;48.40;;;24.85;;
57718;SDS011;43561;50.090;18.522;2024-01-30T01:21:55;27.83;;;15.10;;
57718;SDS011;43561;50.090;18.522;2024-01-30T01:32:03;33.60;;;16.98;;
57718;SDS011;43561;50.090;18.522;2024-01-30T01:42:37;36.25;;;17.45;;
57718;SDS011;43561;50.090;18.522;2024-01-30T02:25:14;35.92;;;17.60;;
57718;SDS011;43561;50.090;18.522;2024-01-30T02:35:16;28.55;;;16.35;;
57718;SDS011;43561;50.090;18.522;2024-01-30T02:45:25;29.70;;;16.65;;
57718;SDS011;43561;50.090;18.522;2024-01-30T02:55:35;27.90;;;17.70;;
57718;SDS011;43561;50.090;18.522;2024-01-30T03:05:37;37.00;;;18.25;;
57718;SDS011;43561;50.090;18.522;2024-01-30T03:15:53;42.30;;;17.55;;
57718;SDS011;43561;50.090;18.522;2024-01-30T03:25:59;36.78;;;21.38;;
57718;SDS011;43561;50.090;18.522;2024-01-30T03:36:04;35.00;;;15.50;;
57718;SDS011;43561;50.090;18.522;2024-01-30T03:46:08;32.60;;;14.52;;
57718;SDS011;43561;50.090;18.522;2024-01-30T03:56:16;28.15;;;11.95;;
57718;SDS011;43561;50.090;18.522;2024-01-30T04:06:22;54.38;;;18.58;;
57718;SDS011;43561;50.090;18.522;2024-01-30T04:16:33;28.42;;;15.18;;
57718;SDS011;43561;50.090;18.522;2024-01-30T04:26:35;34.45;;;15.38;;
57718;SDS011;43561;50.090;18.522;2024-01-30T04:36:43;38.70;;;15.25;;
57718;SDS011;43561;50.090;18.522;2024-01-30T04:46:56;46.75;;;19.63;;
57718;SDS011;43561;50.090;18.522;2024-01-30T04:57:06;37.85;;;18.10;;
57718;SDS011;43561;50.090;18.522;2024-01-30T05:07:09;36.28;;;18.48;;
57718;SDS011;43561;50.090;18.522;2024-01-30T05:17:11;37.55;;;17.20;;
57718;SDS011;43561;50.090;18.522;2024-01-30T05:27:14;48.13;;;18.50;;
57718;SDS011;43561;50.090;18.522;2024-01-30T05:37:18;33.85;;;16.63;;
57718;SDS011;43561;50.090;18.522;2024-01-30T05:47:23;42.65;;;18.50;;
57718;SDS011;43561;50.090;18.522;2024-01-30T05:57:25;51.13;;;22.90;;
57718;SDS011;43561;50.090;18.522;2024-01-30T06:07:27;45.08;;;23.50;;
57718;SDS011;43561;50.090;18.522;2024-01-30T06:17:43;53.17;;;25.00;;
57718;SDS011;43561;50.090;18.522;2024-01-30T06:27:45;50.67;;;24.10;;
57718;SDS011;43561;50.090;18.522;2024-01-30T06:37:49;40.60;;;23.65;;
57718;SDS011;43561;50.090;18.522;2024-01-30T06:47:56;59.88;;;22.83;;
57718;SDS011;43561;50.090;18.522;2024-01-30T06:57:58;42.90;;;20.38;;
57718;SDS011;43561;50.090;18.522;2024-01-30T07:08:00;53.58;;;22.73;;
57718;SDS011;43561;50.090;18.522;2024-01-30T07:18:02;42.35;;;20.98;;
57718;SDS011;43561;50.090;18.522;2024-01-30T07:28:05;48.22;;;22.88;;
57718;SDS011;43561;50.090;18.522;2024-01-30T07:38:10;47.40;;;19.23;;
57718;SDS011;43561;50.090;18.522;2024-01-30T07:48:14;44.30;;;20.42;;
57718;SDS011;43561;50.090;18.522;2024-01-30T07:58:16;32.65;;;18.35;;
57718;SDS011;43561;50.090;18.522;2024-01-30T08:08:21;32.85;;;13.40;;
57718;SDS011;43561;50.090;18.522;2024-01-30T08:18:29;33.75;;;16.30;;
57718;SDS011;43561;50.090;18.522;2024-01-30T08:49:46;30.50;;;14.05;;
57718;SDS011;43561;50.090;18.522;2024-01-30T09:00:02;21.40;;;12.25;;
57718;SDS011;43561;50.090;18.522;2024-01-30T09:10:08;31.73;;;15.00;;
57718;SDS011;43561;50.090;18.522;2024-01-30T09:30:46;37.50;;;13.90;;
57718;SDS011;43561;50.090;18.522;2024-01-30T09:41:27;21.48;;;12.57;;
57718;SDS011;43561;50.090;18.522;2024-01-30T12:03:06;27.13;;;13.38;;
57718;SDS011;43561;50.090;18.522;2024-01-30T12:36:11;23.23;;;12.93;;
57718;SDS011;43561;50.090;18.522;2024-01-30T12:46:25;26.87;;;13.10;;
57718;SDS011;43561;50.090;18.522;2024-01-30T13:29:14;22.50;;;13.90;;
57718;SDS011;43561;50.090;18.522;2024-01-30T14:01:06;25.88;;;11.93;;
57718;SDS011;43561;50.090;18.522;2024-01-30T14:22:54;22.40;;;12.85;;
57718;SDS011;43561;50.090;18.522;2024-01-30T14:33:17;31.63;;;17.17;;
57718;SDS011;43561;50.090;18.522;2024-01-30T15:06:27;25.40;;;12.32;;
57718;SDS011;43561;50.090;18.522;2024-01-30T15:16:29;30.60;;;13.25;;
57718;SDS011;43561;50.090;18.522;2024-01-30T15:26:34;52.20;;;20.70;;
57718;SDS011;43561;50.090;18.522;2024-01-30T16:08:06;37.83;;;17.00;;
57718;SDS011;43561;50.090;18.522;2024-01-30T16:41:26;31.80;;;17.13;;
57718;SDS011;43561;50.090;18.522;2024-01-30T17:02:54;27.02;;;14.20;;
57718;SDS011;43561;50.090;18.522;2024-01-30T17:35:43;19.50;;;9.93;;
57718;SDS011;43561;50.090;18.522;2024-01-30T17:46:03;18.52;;;8.73;;
57718;SDS011;43561;50.090;18.522;2024-01-30T18:17:13;25.65;;;8.73;;
57718;SDS011;43561;50.090;18.522;2024-01-30T18:27:16;18.17;;;9.43;;
57718;SDS011;43561;50.090;18.522;2024-01-30T18:37:27;31.15;;;10.73;;
57718;SDS011;43561;50.090;18.522;2024-01-30T18:47:51;20.67;;;9.18;;
57718;SDS011;43561;50.090;18.522;2024-01-30T18:58:19;41.45;;;12.75;;
57718;SDS011;43561;50.090;18.522;2024-01-30T19:18:31;21.98;;;9.32;;
57718;SDS011;43561;50.090;18.522;2024-01-30T19:28:36;22.92;;;10.20;;
57718;SDS011;43561;50.090;18.522;2024-01-30T19:38:55;19.85;;;9.35;;
57718;SDS011;43561;50.090;18.522;2024-01-30T20:00:14;15.93;;;8.45;;
57718;SDS011;43561;50.090;18.522;2024-01-30T20:10:16;16.92;;;7.63;;
57718;SDS011;43561;50.090;18.522;2024-01-30T20:20:18;17.30;;;8.88;;
57718;SDS011;43561;50.090;18.522;2024-01-30T20:30:36;13.18;;;7.22;;
57718;SDS011;43561;50.090;18.522;2024-01-30T20:40:49;26.60;;;12.05;;
57718;SDS011;43561;50.090;18.522;2024-01-30T20:50:51;44.28;;;23.67;;
57718;SDS011;43561;50.090;18.522;2024-01-30T21:00:55;29.80;;;15.48;;
57718;SDS011;43561;50.090;18.522;2024-01-30T21:10:57;32.35;;;16.25;;
57718;SDS011;43561;50.090;18.522;2024-01-30T21:21:00;27.02;;;12.65;;
57718;SDS011;43561;50.090;18.522;2024-01-30T21:31:02;47.58;;;28.58;;
57718;SDS011;43561;50.090;18.522;2024-01-30T21:41:20;47.47;;;20.25;;
57718;SDS011;43561;50.090;18.522;2024-01-30T21:51:32;86.82;;;35.75;;
57718;SDS011;43561;50.090;18.522;2024-01-30T22:01:47;40.13;;;20.63;;
57718;SDS011;43561;50.090;18.522;2024-01-30T22:11:53;61.15;;;28.60;;
57718;SDS011;43561;50.090;18.522;2024-01-30T22:22:00;74.18;;;34.10;;
57718;SDS011;43561;50.090;18.522;2024-01-30T22:32:05;101.97;;;45.00;;
57718;SDS011;43561;50.090;18.522;2024-01-30T22:42:07;89.15;;;47.10;;
57718;SDS011;43561;50.090;18.522;2024-01-30T22:52:11;49.30;;;29.00;;
57718;SDS011;43561;50.090;18.522;2024-01-30T23:13:42;39.72;;;22.13;;
57718;SDS011;43561;50.090;18.522;2024-01-30T23:23:44;35.40;;;18.27;;
57718;SDS011;43561;50.090;18.522;2024-01-30T23:34:02;37.78;;;18.08;;
57718;SDS011;43561;50.090;18.522;2024-01-30T23:44:09;34.70;;;18.48;;
57718;SDS011;43561;50.090;18.522;2024-01-30T23:54:11;29.27;;;17.10;;
